createdAt,value
2018-03-07T00:00:40.184Z,14.40
2018-03-07T00:03:08.418Z,14.70
2018-03-07T00:05:35.846Z,14.70
2018-03-07T00:08:03.292Z,14.60
2018-03-07T00:10:30.867Z,14.40
2018-03-07T00:12:58.298Z,14.40
2018-03-07T00:15:26.485Z,14.30
2018-03-07T00:17:53.951Z,14.30
2018-03-07T00:20:21.418Z,14.50
2018-03-07T00:22:48.863Z,14.60
2018-03-07T00:25:16.302Z,14.70
2018-03-07T00:27:44.503Z,14.80
2018-03-07T00:30:11.932Z,14.80
2018-03-07T00:32:40.138Z,14.70
2018-03-07T00:35:07.574Z,14.70
2018-03-07T00:37:35.038Z,14.70
2018-03-07T00:40:02.465Z,14.70
2018-03-07T00:42:30.674Z,14.70
2018-03-07T00:44:58.102Z,14.70
2018-03-07T00:47:26.304Z,14.60
2018-03-07T00:49:53.790Z,14.50
2018-03-07T00:52:21.209Z,14.60
2018-03-07T00:54:48.641Z,14.60
2018-03-07T00:57:16.098Z,14.60
2018-03-07T00:59:43.529Z,14.50
2018-03-07T01:02:10.979Z,14.50
2018-03-07T01:04:38.424Z,14.60
2018-03-07T01:07:05.864Z,14.70
2018-03-07T01:09:34.055Z,14.50
2018-03-07T01:12:01.487Z,14.50
2018-03-07T01:14:28.914Z,14.30
2018-03-07T01:16:56.437Z,14.30
2018-03-07T01:19:23.900Z,14.40
2018-03-07T01:21:51.354Z,14.30
2018-03-07T01:24:18.786Z,14.30
2018-03-07T01:26:46.271Z,14.30
2018-03-07T01:29:13.728Z,14.30
2018-03-07T01:31:41.161Z,14.20
2018-03-07T01:34:08.626Z,14.20
2018-03-07T01:36:36.044Z,14.20
2018-03-07T01:39:04.266Z,14.10
2018-03-07T01:41:31.701Z,14.10
2018-03-07T01:43:59.133Z,14.10
2018-03-07T01:46:27.340Z,14.00
2018-03-07T01:48:54.788Z,14.00
2018-03-07T01:51:22.225Z,13.90
2018-03-07T01:53:50.425Z,13.90
2018-03-07T01:56:17.861Z,13.90
2018-03-07T01:58:46.076Z,13.80
2018-03-07T02:01:13.507Z,13.80
2018-03-07T02:03:41.707Z,13.70
2018-03-07T02:06:09.152Z,13.70
2018-03-07T02:08:36.588Z,13.80
2018-03-07T02:11:04.794Z,13.80
2018-03-07T02:13:32.237Z,13.80
2018-03-07T02:15:59.682Z,13.80
2018-03-07T02:18:27.175Z,13.80
2018-03-07T02:20:54.593Z,13.80
2018-03-07T02:23:22.806Z,13.70
2018-03-07T02:25:50.249Z,13.70
2018-03-07T02:28:17.687Z,13.60
2018-03-07T02:30:45.893Z,13.50
2018-03-07T02:33:13.335Z,13.50
2018-03-07T02:35:40.768Z,13.50
2018-03-07T02:38:08.984Z,13.50
2018-03-07T02:40:36.435Z,13.50
2018-03-07T02:43:03.854Z,13.40
2018-03-07T02:45:32.049Z,13.40
2018-03-07T02:47:59.507Z,13.40
2018-03-07T02:50:27.717Z,13.40
2018-03-07T02:52:55.147Z,13.30
2018-03-07T02:55:22.618Z,13.30
2018-03-07T02:57:50.213Z,13.30
2018-03-07T03:00:17.673Z,13.20
2018-03-07T03:02:45.992Z,13.10
2018-03-07T03:05:13.456Z,12.90
2018-03-07T03:07:40.879Z,12.90
2018-03-07T03:10:08.317Z,12.90
2018-03-07T03:12:35.758Z,13.00
2018-03-07T03:15:03.221Z,13.00
2018-03-07T03:17:30.644Z,13.00
2018-03-07T03:19:58.085Z,13.00
2018-03-07T03:22:26.294Z,12.90
2018-03-07T03:24:53.729Z,12.90
2018-03-07T03:27:21.152Z,12.90
2018-03-07T03:29:49.365Z,12.60
2018-03-07T03:32:16.838Z,12.60
2018-03-07T03:34:44.261Z,12.50
2018-03-07T03:37:12.468Z,12.40
2018-03-07T03:39:39.914Z,12.30
2018-03-07T03:42:07.345Z,12.30
2018-03-07T03:44:35.568Z,12.30
2018-03-07T03:47:02.999Z,12.30
2018-03-07T03:49:30.436Z,12.30
2018-03-07T03:51:58.644Z,11.90
2018-03-07T03:54:26.085Z,11.90
2018-03-07T03:56:53.506Z,12.00
2018-03-07T03:59:20.966Z,11.80
2018-03-07T04:01:48.399Z,11.80
2018-03-07T04:04:15.839Z,11.90
2018-03-07T04:06:43.271Z,11.90
2018-03-07T04:09:10.699Z,11.90
2018-03-07T04:11:38.893Z,11.50
2018-03-07T04:14:07.095Z,11.60
2018-03-07T04:16:34.559Z,11.60
2018-03-07T04:19:01.999Z,11.70
2018-03-07T04:21:29.430Z,11.80
2018-03-07T04:23:57.646Z,11.70
2018-03-07T04:26:25.235Z,11.70
2018-03-07T04:28:52.681Z,11.70
2018-03-07T04:31:20.125Z,11.70
2018-03-07T04:33:47.560Z,11.70
2018-03-07T04:36:16.327Z,11.80
2018-03-07T04:38:44.642Z,11.80
2018-03-07T04:41:12.056Z,11.80
2018-03-07T04:43:40.268Z,11.90
2018-03-07T04:46:07.713Z,11.90
2018-03-07T04:48:35.210Z,11.90
2018-03-07T04:51:02.657Z,11.90
2018-03-07T04:53:30.124Z,11.90
2018-03-07T04:55:57.581Z,11.90
2018-03-07T04:58:25.019Z,11.80
2018-03-07T05:00:52.448Z,11.60
2018-03-07T05:03:20.647Z,11.60
2018-03-07T05:05:48.075Z,11.50
2018-03-07T05:08:15.900Z,11.50
2018-03-07T05:10:43.333Z,11.40
2018-03-07T05:13:10.756Z,11.30
2018-03-07T05:15:38.955Z,11.10
2018-03-07T05:18:06.410Z,11.10
2018-03-07T05:20:33.850Z,11.00
2018-03-07T05:23:02.054Z,10.80
2018-03-07T05:25:29.473Z,10.80
2018-03-07T05:27:57.699Z,10.70
2018-03-07T05:30:25.121Z,10.70
2018-03-07T05:32:52.573Z,10.60
2018-03-07T05:35:20.779Z,10.50
2018-03-07T05:37:48.220Z,10.50
2018-03-07T05:40:16.039Z,10.40
2018-03-07T05:42:43.470Z,10.40
2018-03-07T05:45:10.913Z,10.40
2018-03-07T05:47:38.337Z,10.40
2018-03-07T05:50:06.542Z,10.30
2018-03-07T05:52:33.965Z,10.30
2018-03-07T05:55:02.161Z,10.20
2018-03-07T05:57:29.589Z,10.20
2018-03-07T05:59:57.798Z,10.20
2018-03-07T06:02:25.234Z,10.10
2018-03-07T06:04:53.437Z,10.20
2018-03-07T06:07:20.868Z,10.20
2018-03-07T06:09:49.094Z,10.20
2018-03-07T06:12:16.533Z,10.20
2018-03-07T06:14:44.021Z,10.10
2018-03-07T06:17:11.558Z,10.10
2018-03-07T06:19:38.986Z,10.00
2018-03-07T06:22:07.185Z,9.90
2018-03-07T06:24:34.641Z,9.90
2018-03-07T06:27:02.049Z,9.80
2018-03-07T06:29:29.565Z,9.80
2018-03-07T06:31:57.138Z,9.80
2018-03-07T06:34:24.528Z,9.70
2018-03-07T06:36:52.749Z,9.70
2018-03-07T06:39:20.213Z,9.70
2018-03-07T06:41:47.650Z,9.80
2018-03-07T06:44:16.762Z,9.90
2018-03-07T06:46:44.235Z,9.90
2018-03-07T06:49:11.688Z,10.00
2018-03-07T06:51:39.120Z,10.20
2018-03-07T06:54:06.552Z,10.30
2018-03-07T06:56:34.788Z,10.40
2018-03-07T06:59:02.234Z,10.40
2018-03-07T07:01:29.684Z,10.50
2018-03-07T07:03:57.108Z,10.60
2018-03-07T07:06:24.620Z,10.90
2018-03-07T07:08:52.055Z,11.30
2018-03-07T07:11:19.497Z,11.60
2018-03-07T07:13:46.926Z,12.00
2018-03-07T07:16:16.073Z,12.40
2018-03-07T07:18:43.546Z,12.40
2018-03-07T07:21:10.982Z,12.50
2018-03-07T07:23:38.407Z,12.70
2018-03-07T07:26:06.619Z,13.50
2018-03-07T07:28:34.082Z,13.50
2018-03-07T07:31:01.537Z,13.80
2018-03-07T07:33:28.982Z,14.30
2018-03-07T07:35:56.405Z,14.60
2018-03-07T07:38:24.630Z,14.80
2018-03-07T07:40:52.073Z,14.80
2018-03-07T07:43:19.568Z,15.20
2018-03-07T07:45:46.969Z,15.20
2018-03-07T07:48:16.080Z,15.80
2018-03-07T07:50:43.562Z,15.80
2018-03-07T07:53:11.721Z,17.00
2018-03-07T07:55:39.157Z,17.00
2018-03-07T07:58:06.636Z,17.30
2018-03-07T08:00:34.108Z,17.40
2018-03-07T08:03:01.557Z,17.30
2018-03-07T08:05:29.021Z,17.10
2018-03-07T08:07:57.023Z,17.20
2018-03-07T08:10:24.550Z,17.00
2018-03-07T08:12:51.996Z,16.90
2018-03-07T08:15:19.406Z,16.70
2018-03-07T08:17:47.612Z,17.30
2018-03-07T08:20:15.046Z,17.30
2018-03-07T08:22:43.273Z,18.00
2018-03-07T08:25:10.731Z,18.00
2018-03-07T08:27:38.296Z,18.60
2018-03-07T08:30:05.698Z,19.70
2018-03-07T08:32:33.892Z,21.30
2018-03-07T08:35:01.325Z,21.30
2018-03-07T08:37:29.558Z,21.50
2018-03-07T08:39:56.992Z,21.50
2018-03-07T08:42:24.424Z,21.60
2018-03-07T08:44:52.623Z,22.40
2018-03-07T08:47:20.053Z,22.40
2018-03-07T08:49:48.273Z,22.50
2018-03-07T08:52:17.155Z,22.50
2018-03-07T08:54:44.570Z,22.70
2018-03-07T08:57:12.776Z,23.80
2018-03-07T08:59:40.197Z,23.80
2018-03-07T09:02:07.660Z,24.40
2018-03-07T09:04:35.896Z,25.10
2018-03-07T09:07:03.331Z,25.80
2018-03-07T09:09:30.764Z,26.30
2018-03-07T09:11:58.247Z,27.10
2018-03-07T09:14:25.717Z,27.70
2018-03-07T09:16:53.124Z,28.00
2018-03-07T09:19:21.335Z,29.00
2018-03-07T09:21:48.766Z,29.00
2018-03-07T09:24:16.497Z,29.00
2018-03-07T09:26:43.940Z,28.50
2018-03-07T09:29:11.379Z,28.70
2018-03-07T09:31:38.812Z,28.30
2018-03-07T09:34:06.240Z,28.30
2018-03-07T09:36:34.450Z,27.50
2018-03-07T09:39:01.895Z,27.50
2018-03-07T09:41:30.084Z,24.90
2018-03-07T09:43:57.526Z,24.80
2018-03-07T09:46:25.738Z,23.30
2018-03-07T09:48:53.186Z,23.30
2018-03-07T09:51:20.622Z,24.10
2018-03-07T09:53:48.060Z,24.20
2018-03-07T09:56:17.233Z,24.30
2018-03-07T09:58:44.645Z,24.30
2018-03-07T10:01:12.077Z,25.50
2018-03-07T10:03:40.932Z,25.70
2018-03-07T10:06:08.366Z,25.60
2018-03-07T10:08:35.847Z,25.40
2018-03-07T10:11:03.294Z,25.00
2018-03-07T10:13:30.730Z,24.90
2018-03-07T10:15:58.164Z,23.70
2018-03-07T10:18:25.660Z,22.10
2018-03-07T10:20:53.100Z,21.30
2018-03-07T10:23:20.540Z,20.50
2018-03-07T10:25:47.969Z,20.60
2018-03-07T10:28:15.404Z,20.60
2018-03-07T10:30:42.852Z,21.30
2018-03-07T10:33:16.023Z,21.40
2018-03-07T10:35:43.454Z,20.20
2018-03-07T10:38:11.658Z,18.90
2018-03-07T10:40:39.111Z,18.90
2018-03-07T10:43:06.587Z,18.40
2018-03-07T10:45:34.009Z,18.20
2018-03-07T10:48:01.505Z,18.20
2018-03-07T10:50:28.938Z,18.10
2018-03-07T10:52:56.392Z,18.30
2018-03-07T10:55:23.895Z,18.60
2018-03-07T10:57:51.423Z,18.70
2018-03-07T11:00:24.560Z,18.60
2018-03-07T11:02:51.990Z,18.60
2018-03-07T11:05:19.449Z,18.10
2018-03-07T11:07:46.883Z,17.50
2018-03-07T11:10:14.329Z,17.10
2018-03-07T11:12:41.775Z,18.40
2018-03-07T11:15:09.225Z,20.50
2018-03-07T11:17:37.457Z,22.10
2018-03-07T11:20:04.884Z,22.10
2018-03-07T11:22:33.096Z,20.70
2018-03-07T11:25:00.556Z,20.70
2018-03-07T11:27:28.001Z,19.80
2018-03-07T11:29:55.520Z,20.00
2018-03-07T11:32:22.945Z,20.30
2018-03-07T11:34:51.185Z,20.00
2018-03-07T11:37:18.641Z,20.00
2018-03-07T11:39:46.091Z,19.80
2018-03-07T11:42:13.522Z,19.00
2018-03-07T11:44:40.981Z,18.70
2018-03-07T11:47:09.204Z,17.40
2018-03-07T11:49:36.634Z,17.30
2018-03-07T11:52:04.061Z,17.80
2018-03-07T11:54:32.272Z,18.20
2018-03-07T11:56:59.729Z,18.10
2018-03-07T11:59:27.714Z,17.80
2018-03-07T12:01:55.993Z,16.80
2018-03-07T12:04:23.445Z,16.70
2018-03-07T12:06:50.895Z,16.60
2018-03-07T12:09:18.369Z,16.50
2018-03-07T12:11:45.810Z,15.60
2018-03-07T12:14:13.261Z,16.00
2018-03-07T12:16:40.704Z,15.90
2018-03-07T12:19:08.209Z,15.50
2018-03-07T12:21:35.656Z,16.20
2018-03-07T12:24:03.106Z,16.60
2018-03-07T12:26:30.560Z,16.30
2018-03-07T12:28:58.002Z,16.90
2018-03-07T12:31:25.444Z,17.00
2018-03-07T12:33:53.665Z,17.10
2018-03-07T12:36:22.065Z,17.10
2018-03-07T12:38:49.495Z,16.20
2018-03-07T12:41:16.937Z,16.00
2018-03-07T12:43:44.386Z,15.90
2018-03-07T12:46:11.868Z,15.90
2018-03-07T12:48:39.333Z,15.90
2018-03-07T12:51:06.806Z,15.40
2018-03-07T12:53:34.228Z,15.10
2018-03-07T12:56:01.684Z,14.60
2018-03-07T12:58:29.120Z,14.60
2018-03-07T13:00:56.544Z,14.50
2018-03-07T13:03:24.769Z,14.40
2018-03-07T13:05:52.245Z,14.40
2018-03-07T13:08:19.669Z,14.20
2018-03-07T13:10:47.100Z,14.30
2018-03-07T13:13:15.310Z,15.10
2018-03-07T13:15:42.758Z,15.10
2018-03-07T13:18:10.980Z,14.30
2018-03-07T13:20:38.458Z,14.20
2018-03-07T13:23:05.885Z,13.80
2018-03-07T13:25:33.346Z,12.90
2018-03-07T13:28:00.773Z,13.50
2018-03-07T13:30:28.213Z,13.90
2018-03-07T13:32:55.650Z,13.70
2018-03-07T13:35:23.902Z,14.10
2018-03-07T13:37:51.341Z,14.10
2018-03-07T13:40:18.812Z,14.00
2018-03-07T13:42:46.304Z,13.90
2018-03-07T13:45:14.561Z,14.20
2018-03-07T13:47:42.005Z,14.20
2018-03-07T13:50:09.443Z,14.50
2018-03-07T13:52:36.899Z,14.60
2018-03-07T13:55:04.417Z,15.20
2018-03-07T13:57:32.640Z,15.60
2018-03-07T14:00:00.112Z,15.60
2018-03-07T14:02:27.554Z,14.80
2018-03-07T14:04:55.005Z,15.30
2018-03-07T14:07:22.461Z,14.40
2018-03-07T14:09:49.933Z,14.40
2018-03-07T14:12:17.362Z,15.10
2018-03-07T14:14:44.788Z,15.70
2018-03-07T14:17:13.032Z,16.40
2018-03-07T14:19:40.469Z,16.40
2018-03-07T14:22:07.900Z,16.30
2018-03-07T14:24:35.364Z,16.60
2018-03-07T14:27:03.551Z,15.90
2018-03-07T14:29:30.981Z,15.90
2018-03-07T14:31:59.189Z,16.00
2018-03-07T14:34:26.660Z,16.00
2018-03-07T14:36:54.101Z,15.50
2018-03-07T14:39:21.520Z,15.20
2018-03-07T14:41:49.750Z,14.90
2018-03-07T14:44:17.190Z,14.90
2018-03-07T14:46:44.625Z,15.40
2018-03-07T14:49:12.108Z,15.20
2018-03-07T14:51:39.550Z,15.10
2018-03-07T14:54:06.972Z,14.70
2018-03-07T14:56:34.412Z,14.60
2018-03-07T14:59:01.844Z,14.70
2018-03-07T15:01:29.277Z,15.20
2018-03-07T15:03:56.704Z,15.30
2018-03-07T15:06:24.918Z,15.10
2018-03-07T15:08:52.343Z,15.10
2018-03-07T15:11:20.541Z,14.50
2018-03-07T15:13:47.982Z,14.50
2018-03-07T15:16:16.173Z,14.80
2018-03-07T15:18:43.666Z,14.80
2018-03-07T15:21:11.098Z,14.80
2018-03-07T15:23:38.532Z,14.60
2018-03-07T15:26:06.747Z,14.40
2018-03-07T15:28:34.173Z,14.30
2018-03-07T15:31:01.609Z,14.40
2018-03-07T15:33:29.833Z,13.70
2018-03-07T15:35:57.272Z,13.60
2018-03-07T15:38:24.749Z,14.00
2018-03-07T15:40:52.194Z,13.30
2018-03-07T15:43:19.630Z,13.30
2018-03-07T15:45:47.879Z,13.30
2018-03-07T15:48:15.346Z,13.30
2018-03-07T15:50:42.777Z,13.30
2018-03-07T15:53:10.224Z,13.30
2018-03-07T15:55:37.658Z,13.30
2018-03-07T15:58:05.093Z,13.20
2018-03-07T16:00:33.358Z,12.90
2018-03-07T16:03:01.569Z,13.00
2018-03-07T16:05:29.005Z,13.00
2018-03-07T16:07:56.446Z,13.00
2018-03-07T16:10:24.643Z,13.60
2018-03-07T16:12:52.077Z,13.50
2018-03-07T16:15:20.284Z,13.50
2018-03-07T16:17:47.767Z,13.50
2018-03-07T16:20:15.196Z,13.60
2018-03-07T16:22:42.725Z,13.70
2018-03-07T16:25:11.068Z,14.00
2018-03-07T16:27:38.408Z,14.00
2018-03-07T16:30:05.867Z,13.80
2018-03-07T16:32:33.333Z,13.70
2018-03-07T16:35:00.757Z,13.70
2018-03-07T16:37:28.289Z,13.60
2018-03-07T16:39:55.696Z,13.80
2018-03-07T16:42:23.145Z,12.80
2018-03-07T16:44:50.578Z,12.70
2018-03-07T16:47:18.013Z,12.90
2018-03-07T16:49:45.547Z,13.00
2018-03-07T16:52:12.992Z,13.00
2018-03-07T16:54:40.436Z,12.70
2018-03-07T16:57:07.857Z,12.90
2018-03-07T16:59:36.052Z,12.90
2018-03-07T17:02:03.550Z,12.90
2018-03-07T17:04:30.995Z,12.80
2018-03-07T17:06:58.434Z,13.10
2018-03-07T17:09:25.921Z,13.40
2018-03-07T17:11:53.366Z,13.80
2018-03-07T17:14:20.830Z,13.70
2018-03-07T17:16:48.253Z,13.70
2018-03-07T17:19:15.685Z,13.70
2018-03-07T17:21:43.124Z,13.50
2018-03-07T17:24:10.557Z,13.00
2018-03-07T17:26:37.985Z,13.10
2018-03-07T17:29:05.435Z,13.20
2018-03-07T17:31:33.625Z,13.40
2018-03-07T17:34:01.066Z,13.40
2018-03-07T17:36:28.490Z,13.60
2018-03-07T17:38:56.024Z,13.10
2018-03-07T17:41:23.456Z,13.00
2018-03-07T17:43:50.899Z,12.90
2018-03-07T17:46:19.078Z,12.70
2018-03-07T17:48:46.518Z,12.60
2018-03-07T17:51:14.722Z,12.80
2018-03-07T17:53:42.163Z,12.80
2018-03-07T17:56:09.607Z,12.90
2018-03-07T17:58:37.081Z,13.20
2018-03-07T18:01:05.410Z,13.10
2018-03-07T18:03:32.849Z,13.10
2018-03-07T18:06:00.285Z,12.40
2018-03-07T18:08:27.745Z,12.60
2018-03-07T18:10:55.169Z,12.90
2018-03-07T18:13:23.439Z,13.00
2018-03-07T18:15:50.859Z,13.00
2018-03-07T18:18:18.280Z,13.30
2018-03-07T18:20:45.723Z,13.20
2018-03-07T18:23:13.916Z,13.30
2018-03-07T18:25:41.340Z,13.30
2018-03-07T18:28:09.546Z,12.40
2018-03-07T18:30:36.977Z,12.40
2018-03-07T18:33:05.202Z,12.60
2018-03-07T18:35:32.641Z,12.60
2018-03-07T18:38:00.080Z,12.50
2018-03-07T18:40:28.278Z,12.70
2018-03-07T18:42:55.720Z,12.70
2018-03-07T18:45:23.908Z,12.20
2018-03-07T18:47:51.342Z,12.20
2018-03-07T18:50:19.533Z,12.00
2018-03-07T18:52:46.979Z,11.90
2018-03-07T18:55:15.174Z,12.10
2018-03-07T18:57:42.591Z,12.10
2018-03-07T19:00:10.841Z,12.40
2018-03-07T19:02:38.284Z,12.40
2018-03-07T19:05:06.522Z,12.20
2018-03-07T19:07:33.958Z,11.90
2018-03-07T19:10:01.410Z,11.90
2018-03-07T19:12:28.861Z,11.80
2018-03-07T19:14:56.304Z,12.10
2018-03-07T19:17:23.752Z,12.20
2018-03-07T19:19:51.195Z,12.20
2018-03-07T19:22:18.661Z,11.80
2018-03-07T19:24:46.107Z,11.50
2018-03-07T19:27:13.562Z,11.60
2018-03-07T19:29:41.757Z,11.20
2018-03-07T19:32:09.185Z,11.20
2018-03-07T19:34:36.652Z,11.30
2018-03-07T19:37:04.096Z,11.00
2018-03-07T19:39:31.651Z,11.20
2018-03-07T19:41:59.073Z,11.10
2018-03-07T19:44:26.533Z,11.00
2018-03-07T19:46:54.046Z,10.70
2018-03-07T19:49:21.488Z,10.60
2018-03-07T19:51:48.916Z,11.00
2018-03-07T19:54:18.086Z,10.90
2018-03-07T19:56:45.471Z,10.80
2018-03-07T19:59:13.673Z,10.40
2018-03-07T20:01:41.098Z,10.40
2018-03-07T20:04:09.314Z,10.50
2018-03-07T20:06:36.747Z,10.50
2018-03-07T20:09:04.952Z,10.80
2018-03-07T20:11:32.374Z,10.80
2018-03-07T20:14:00.589Z,10.70
2018-03-07T20:16:28.032Z,10.70
2018-03-07T20:18:55.456Z,10.90
2018-03-07T20:21:23.656Z,10.70
2018-03-07T20:23:51.102Z,10.70
2018-03-07T20:26:19.288Z,10.40
2018-03-07T20:28:54.916Z,10.40
2018-03-07T20:31:23.433Z,10.40
2018-03-07T20:33:50.916Z,10.40
2018-03-07T20:36:18.359Z,10.60
2018-03-07T20:38:45.799Z,10.30
2018-03-07T20:41:13.284Z,10.10
2018-03-07T20:43:40.731Z,10.00
2018-03-07T20:46:08.149Z,10.20
2018-03-07T20:48:36.369Z,10.50
2018-03-07T20:51:03.825Z,10.40
2018-03-07T20:53:31.277Z,10.50
2018-03-07T20:55:58.713Z,10.60
2018-03-07T20:58:26.160Z,10.60
2018-03-07T21:00:54.350Z,10.50
2018-03-07T21:03:21.781Z,10.50
2018-03-07T21:05:50.019Z,10.30
2018-03-07T21:08:18.372Z,10.20
2018-03-07T21:10:45.796Z,10.50
2018-03-07T21:13:14.008Z,10.80
2018-03-07T21:15:41.443Z,10.80
2018-03-07T21:18:09.628Z,11.00
2018-03-07T21:20:37.057Z,10.90
2018-03-07T21:23:05.265Z,10.80
2018-03-07T21:25:32.697Z,10.80
2018-03-07T21:28:00.893Z,10.60
2018-03-07T21:30:28.345Z,10.60
2018-03-07T21:32:55.769Z,10.80
2018-03-07T21:35:23.280Z,10.90
2018-03-07T21:37:50.694Z,10.70
2018-03-07T21:40:19.107Z,10.70
2018-03-07T21:42:46.530Z,10.70
2018-03-07T21:45:14.727Z,11.00
2018-03-07T21:47:42.148Z,10.90
2018-03-07T21:50:09.597Z,10.70
2018-03-07T21:52:37.684Z,10.50
2018-03-07T21:55:05.154Z,10.70
2018-03-07T21:57:33.351Z,11.10
2018-03-07T22:00:00.857Z,11.10
2018-03-07T22:02:28.300Z,11.10
2018-03-07T22:04:55.752Z,10.70
2018-03-07T22:07:23.190Z,10.60
2018-03-07T22:09:50.614Z,10.70
2018-03-07T22:12:19.226Z,10.30
2018-03-07T22:14:46.700Z,10.20
2018-03-07T22:17:14.170Z,10.40
2018-03-07T22:19:41.626Z,10.50
2018-03-07T22:22:09.164Z,10.00
2018-03-07T22:24:36.659Z,10.00
2018-03-07T22:27:04.627Z,10.00
2018-03-07T22:29:32.067Z,10.10
2018-03-07T22:31:59.527Z,10.00
2018-03-07T22:34:26.975Z,9.50
2018-03-07T22:36:54.417Z,9.50
2018-03-07T22:39:21.841Z,10.00
2018-03-07T22:41:49.298Z,10.30
2018-03-07T22:44:16.712Z,9.10
2018-03-07T22:46:44.191Z,8.90
2018-03-07T22:49:11.639Z,8.80
2018-03-07T22:51:39.102Z,8.80
2018-03-07T22:54:06.542Z,9.50
2018-03-07T22:56:33.996Z,9.10
2018-03-07T22:59:01.453Z,8.90
2018-03-07T23:01:28.938Z,9.50
2018-03-07T23:03:56.349Z,9.40
2018-03-07T23:06:23.768Z,9.00
2018-03-07T23:08:51.224Z,8.80
2018-03-07T23:11:18.653Z,8.90
2018-03-07T23:13:46.078Z,8.90
2018-03-07T23:16:13.517Z,9.10
2018-03-07T23:18:41.742Z,9.60
2018-03-07T23:21:09.208Z,9.50
2018-03-07T23:23:36.639Z,9.50
2018-03-07T23:26:04.133Z,9.50
2018-03-07T23:28:31.588Z,9.40
2018-03-07T23:30:59.044Z,9.50
2018-03-07T23:33:27.282Z,8.90
2018-03-07T23:35:54.713Z,8.90
2018-03-07T23:38:22.971Z,8.90
2018-03-07T23:40:50.947Z,8.90
2018-03-07T23:43:18.680Z,9.00
2018-03-07T23:45:46.111Z,9.00
2018-03-07T23:48:14.421Z,8.70
2018-03-07T23:50:41.890Z,8.90
2018-03-07T23:53:09.337Z,8.80
2018-03-07T23:55:36.769Z,8.90
2018-03-07T23:58:04.200Z,8.80
